^^

..:: Storico WU ::..




Lo storico viene creato da WUnderground con i dati che la stazione Meteomincio invia al loro server. L' aggiornamento viene fatto ogni 5 minuti circa, tuttavia possono esserci intervalli pił ampi a causa di errori, interruzioni di servizio o problemi nell' invio tramite FTP.


Storico stazione MeteoMincio
Giorno Sommario per Aprile 26, 2022 Unità:  Inglese    Metrico   Entrambi
Giorno Settimana Mese Anno
  Max: Min: Media:
Temperatura: 68 °F 55.4 °F 59.7 °F
Dew Point: 59 °F 50 °F 54 °F
Umidità: 90% 68% 82%
Velocità vento: 11.8mph 0mph 4.8mph
Raffica: 19.3mph - -
Direzione- - East
Pressione: 30 in 29.9 in -
Precipitazioni: 0 in    
 
 
Tabulato Dati per Aprile 26, 2022
Ora Temperatura Dew Point Pressione Direzione Velocità vento Raffica Umidità Intensità pioggia (oraria) Info solare Situazione
00:04 57.2 °F 53.6 °F 29.9 in East 2.5 mph 5 mph 85% 0 in 0.00 W/m2 unknown
00:09 57.2 °F 53.6 °F 29.9 in East 2.5 mph 5 mph 85% 0 in 0.00 W/m2 unknown
00:14 57.2 °F 53.6 °F 29.9 in ENE 5 mph 6.8 mph 85% 0 in 0.00 W/m2 unknown
00:19 57.2 °F 53.6 °F 29.9 in East 5.6 mph 9.3 mph 85% 0 in 0.00 W/m2 unknown
00:24 57.2 °F 53.6 °F 29.9 in East 5 mph 8.7 mph 85% 0 in 0.00 W/m2 unknown
00:29 57.2 °F 53.6 °F 29.9 in East 5 mph 8.1 mph 85% 0 in 0.00 W/m2 unknown
00:34 57.2 °F 53.6 °F 29.9 in East 4.3 mph 8.1 mph 85% 0 in 0.00 W/m2 unknown
00:39 57.2 °F 53.6 °F 29.9 in East 5 mph 6.8 mph 85% 0 in 0.00 W/m2 unknown
00:44 57.2 °F 53.6 °F 29.9 in East 5 mph 6.8 mph 86% 0 in 0.00 W/m2 unknown
00:49 57.2 °F 51.8 °F 29.9 in East 6.2 mph 9.3 mph 85% 0 in 0.00 W/m2 unknown
00:54 57.2 °F 51.8 °F 29.9 in East 6.8 mph 10.6 mph 85% 0 in 0.00 W/m2 unknown
00:59 57.2 °F 51.8 °F 29.9 in East 6.2 mph 10.6 mph 85% 0 in 0.00 W/m2 unknown
01:04 57.2 °F 51.8 °F 29.9 in East 5.6 mph 9.9 mph 85% 0 in 0.00 W/m2 unknown
01:09 57.2 °F 51.8 °F 29.9 in ESE 6.8 mph 9.9 mph 85% 0 in 0.00 W/m2 unknown
01:14 57.2 °F 51.8 °F 29.9 in East 6.8 mph 10.6 mph 85% 0 in 0.00 W/m2 unknown
01:19 57.2 °F 51.8 °F 29.9 in East 5.6 mph 9.9 mph 86% 0 in 0.00 W/m2 unknown
01:24 57.2 °F 51.8 °F 29.9 in East 5.6 mph 8.1 mph 86% 0 in 0.00 W/m2 unknown
01:29 57.2 °F 51.8 °F 29.9 in East 6.2 mph 10.6 mph 86% 0 in 0.00 W/m2 unknown
01:34 57.2 °F 51.8 °F 29.9 in East 6.8 mph 9.9 mph 86% 0 in 0.00 W/m2 unknown
01:39 57.2 °F 51.8 °F 29.9 in ENE 8.1 mph 14.3 mph 86% 0 in 0.00 W/m2 unknown
01:44 57.2 °F 51.8 °F 29.9 in East 7.5 mph 14.3 mph 86% 0 in 0.00 W/m2 unknown
01:49 57.2 °F 51.8 °F 29.9 in East 7.5 mph 10.6 mph 86% 0 in 0.00 W/m2 unknown
01:54 55.4 °F 51.8 °F 29.9 in East 8.1 mph 13 mph 86% 0 in 0.00 W/m2 unknown
01:59 55.4 °F 51.8 °F 29.9 in East 8.1 mph 13 mph 85% 0 in 0.00 W/m2 unknown
02:04 55.4 °F 51.8 °F 29.9 in ENE 6.8 mph 13 mph 85% 0 in 0.00 W/m2 unknown
02:09 55.4 °F 51.8 °F 29.9 in ENE 5 mph 8.1 mph 85% 0 in 0.00 W/m2 unknown
02:14 55.4 °F 51.8 °F 29.9 in ENE 5.6 mph 8.1 mph 85% 0 in 0.00 W/m2 unknown
02:19 55.4 °F 51.8 °F 29.9 in ESE 5 mph 8.1 mph 85% 0 in 0.00 W/m2 unknown
02:24 55.4 °F 51.8 °F 29.9 in ENE 5 mph 8.1 mph 86% 0 in 0.00 W/m2 unknown
02:29 55.4 °F 51.8 °F 29.9 in East 5 mph 6.8 mph 86% 0 in 0.00 W/m2 unknown
02:34 55.4 °F 51.8 °F 29.9 in ESE 2.5 mph 5 mph 86% 0 in 0.00 W/m2 unknown
02:39 55.4 °F 51.8 °F 29.9 in ENE 4.3 mph 6.8 mph 87% 0 in 0.00 W/m2 unknown
02:44 55.4 °F 51.8 °F 29.9 in ENE 5 mph 6.8 mph 86% 0 in 0.00 W/m2 unknown
02:49 55.4 °F 51.8 °F 29.9 in East 5.6 mph 8.1 mph 86% 0 in 0.00 W/m2 unknown
02:54 55.4 °F 51.8 °F 29.9 in East 6.2 mph 8.1 mph 87% 0 in 0.00 W/m2 unknown
02:59 55.4 °F 51.8 °F 29.9 in East 5.6 mph 8.1 mph 87% 0 in 0.00 W/m2 unknown
03:04 55.4 °F 51.8 °F 29.9 in East 5.6 mph 6.8 mph 87% 0 in 0.00 W/m2 unknown
03:09 55.4 °F 51.8 °F 29.9 in East 5 mph 6.8 mph 87% 0 in 0.00 W/m2 unknown
03:14 55.4 °F 51.8 °F 29.9 in East 5.6 mph 6.8 mph 87% 0 in 0.00 W/m2 unknown
03:19 55.4 °F 51.8 °F 29.9 in ENE 5.6 mph 8.1 mph 87% 0 in 0.00 W/m2 unknown
03:24 55.4 °F 51.8 °F 29.9 in East 4.3 mph 6.8 mph 87% 0 in 0.00 W/m2 unknown
03:29 55.4 °F 51.8 °F 29.9 in East 3.1 mph 6.8 mph 87% 0 in 0.00 W/m2 unknown
03:34 55.4 °F 51.8 °F 29.9 in East 2.5 mph 5 mph 87% 0 in 0.00 W/m2 unknown
03:39 55.4 °F 51.8 °F 29.9 in East 3.7 mph 5 mph 87% 0 in 0.00 W/m2 unknown
03:44 55.4 °F 51.8 °F 29.9 in ENE 3.7 mph 6.2 mph 87% 0 in 0.00 W/m2 unknown
03:49 55.4 °F 50 °F 29.9 in ENE 5 mph 8.1 mph 87% 0 in 0.00 W/m2 unknown
03:54 55.4 °F 50 °F 29.9 in ENE 5.6 mph 8.1 mph 87% 0 in 0.00 W/m2 unknown
03:59 55.4 °F 50 °F 29.9 in ENE 3.7 mph 8.1 mph 87% 0 in 0.00 W/m2 unknown
04:04 55.4 °F 50 °F 29.9 in ENE 3.7 mph 5 mph 87% 0 in 0.00 W/m2 unknown
04:09 55.4 °F 50 °F 29.9 in ENE 3.7 mph 5 mph 87% 0 in 0.00 W/m2 unknown
04:14 55.4 °F 50 °F 29.9 in ENE 3.7 mph 8.1 mph 87% 0 in 0.00 W/m2 unknown
04:19 55.4 °F 50 °F 29.9 in ENE 3.7 mph 8.1 mph 87% 0 in 0.00 W/m2 unknown
04:24 55.4 °F 51.8 °F 29.9 in ENE 3.1 mph 5 mph 87% 0 in 0.00 W/m2 unknown
04:29 55.4 °F 51.8 °F 29.9 in East 5 mph 6.2 mph 87% 0 in 0.00 W/m2 unknown
04:34 55.4 °F 51.8 °F 29.9 in ENE 5.6 mph 8.1 mph 87% 0 in 0.00 W/m2 unknown
04:39 55.4 °F 51.8 °F 29.9 in East 6.2 mph 8.1 mph 87% 0 in 0.00 W/m2 unknown
04:44 55.4 °F 51.8 °F 29.9 in East 5 mph 6.8 mph 87% 0 in 0.00 W/m2 unknown
04:49 55.4 °F 51.8 °F 29.9 in East 5.6 mph 6.8 mph 87% 0 in 0.00 W/m2 unknown
04:54 55.4 °F 51.8 °F 29.9 in East 6.2 mph 6.8 mph 87% 0 in 0.00 W/m2 unknown
04:59 55.4 °F 51.8 °F 29.9 in East 6.2 mph 9.3 mph 87% 0 in 0.00 W/m2 unknown
05:04 55.4 °F 50 °F 29.9 in East 6.2 mph 8.7 mph 86% 0 in 0.00 W/m2 unknown
05:09 55.4 °F 50 °F 29.9 in ENE 6.2 mph 9.3 mph 86% 0 in 0.00 W/m2 unknown
05:13 55.4 °F 50 °F 29.9 in East 6.2 mph 9.3 mph 86% 0 in 0.00 W/m2 unknown
05:19 55.4 °F 51.8 °F 29.9 in East 4.3 mph 8.1 mph 86% 0 in 0.00 W/m2 unknown
05:24 55.4 °F 51.8 °F 29.9 in ENE 3.1 mph 5 mph 86% 0 in 0.00 W/m2 unknown
05:29 55.4 °F 51.8 °F 29.9 in ENE 4.3 mph 6.8 mph 86% 0 in 0.00 W/m2 unknown
05:34 55.4 °F 50 °F 29.9 in ENE 5 mph 6.8 mph 86% 0 in 0.00 W/m2 unknown
05:39 55.4 °F 50 °F 29.9 in ENE 5 mph 6.8 mph 86% 0 in 0.00 W/m2 unknown
05:44 55.4 °F 50 °F 29.9 in ENE 3.1 mph 5 mph 86% 0 in 0.00 W/m2 unknown
05:49 55.4 °F 50 °F 29.9 in ENE 4.3 mph 8.1 mph 86% 0 in 0.00 W/m2 unknown
05:54 55.4 °F 50 °F 29.9 in ENE 5.6 mph 8.1 mph 86% 0 in 0.00 W/m2 unknown
05:59 55.4 °F 50 °F 29.9 in ENE 3.7 mph 8.1 mph 86% 0 in 0.00 W/m2 unknown
06:04 55.4 °F 50 °F 29.9 in ENE 3.7 mph 5 mph 86% 0 in 0.00 W/m2 unknown
06:09 55.4 °F 50 °F 29.9 in ENE 3.7 mph 6.2 mph 86% 0 in 0.00 W/m2 unknown
06:14 55.4 °F 51.8 °F 29.9 in East 4.3 mph 6.8 mph 87% 0 in 0.00 W/m2 unknown
06:19 55.4 °F 51.8 °F 29.9 in ESE 5 mph 6.8 mph 87% 0 in 0.00 W/m2 unknown
06:24 55.4 °F 51.8 °F 29.9 in East 1.9 mph 5 mph 87% 0 in 0.00 W/m2 unknown
06:29 55.4 °F 51.8 °F 29.9 in East 1.9 mph 3.7 mph 87% 0 in 5.00 W/m2 unknown
06:34 55.4 °F 51.8 °F 29.9 in ESE 1.9 mph 3.7 mph 87% 0 in 5.00 W/m2 unknown
06:39 55.4 °F 51.8 °F 29.9 in ESE 1.2 mph 3.1 mph 87% 0 in 7.00 W/m2 unknown
06:44 55.4 °F 51.8 °F 29.9 in ESE 1.2 mph 2.5 mph 88% 0 in 9.00 W/m2 unknown
06:49 55.4 °F 51.8 °F 29.9 in NE 1.2 mph 2.5 mph 88% 0 in 11.00 W/m2 unknown
06:54 55.4 °F 51.8 °F 29.9 in NNE 1.2 mph 2.5 mph 88% 0 in 11.00 W/m2 unknown
06:59 55.4 °F 51.8 °F 29.9 in NE 0.6 mph 1.9 mph 88% 0 in 14.00 W/m2 unknown
07:04 55.4 °F 51.8 °F 29.9 in Calm   1.2 mph 88% 0 in 23.00 W/m2 unknown
07:09 55.4 °F 51.8 °F 29.9 in NNE 0.6 mph 1.2 mph 88% 0 in 26.00 W/m2 unknown
07:14 55.4 °F 51.8 °F 29.9 in NE 0.6 mph 1.2 mph 88% 0 in 30.00 W/m2 unknown
07:19 55.4 °F 51.8 °F 29.9 in Calm   1.2 mph 89% 0 in 32.00 W/m2 unknown
07:24 55.4 °F 51.8 °F 29.9 in ENE 0.6 mph 1.2 mph 88% 0 in 35.00 W/m2 unknown
07:29 55.4 °F 51.8 °F 29.9 in ENE 1.2 mph 2.5 mph 89% 0 in 44.00 W/m2 unknown
07:34 55.4 °F 51.8 °F 29.9 in ENE 1.2 mph 2.5 mph 89% 0 in 54.00 W/m2 unknown
07:39 55.4 °F 51.8 °F 29.9 in East 1.2 mph 2.5 mph 89% 0 in 70.00 W/m2 unknown
07:44 55.4 °F 51.8 °F 29.9 in East 1.2 mph 2.5 mph 89% 0 in 98.00 W/m2 unknown
07:49 55.4 °F 51.8 °F 29.9 in East 1.2 mph 2.5 mph 89% 0 in 107.00 W/m2 unknown
07:54 55.4 °F 51.8 °F 29.9 in East 1.2 mph 2.5 mph 89% 0 in 107.00 W/m2 unknown
07:59 55.4 °F 53.6 °F 29.9 in East 1.2 mph 3.7 mph 89% 0 in 113.00 W/m2 unknown
08:04 55.4 °F 53.6 °F 29.9 in SSE 1.2 mph 3.1 mph 89% 0 in 120.00 W/m2 unknown
08:09 55.4 °F 51.8 °F 29.9 in East 1.9 mph 3.7 mph 88% 0 in 121.00 W/m2 unknown
08:14 57.2 °F 53.6 °F 29.9 in ENE 2.5 mph 3.7 mph 88% 0 in 127.00 W/m2 unknown
08:19 57.2 °F 53.6 °F 29.9 in East 4.3 mph 6.2 mph 88% 0 in 141.00 W/m2 unknown
08:24 57.2 °F 53.6 °F 29.9 in ENE 5 mph 6.8 mph 87% 0 in 148.00 W/m2 unknown
08:29 57.2 °F 53.6 °F 29.9 in ENE 3.7 mph 5.6 mph 87% 0 in 146.00 W/m2 unknown
08:34 57.2 °F 53.6 °F 29.9 in ENE 3.7 mph 6.8 mph 87% 0 in 151.00 W/m2 unknown
08:39 57.2 °F 53.6 °F 29.9 in ENE 4.3 mph 6.8 mph 87% 0 in 162.00 W/m2 unknown
08:44 57.2 °F 53.6 °F 29.9 in ENE 5 mph 6.2 mph 87% 0 in 174.00 W/m2 unknown
08:49 57.2 °F 53.6 °F 29.9 in East 5 mph 6.8 mph 87% 0 in 186.00 W/m2 unknown
08:54 57.2 °F 53.6 °F 29.9 in East 6.2 mph 8.1 mph 87% 0 in 200.00 W/m2 unknown
08:59 57.2 °F 53.6 °F 29.9 in ENE 6.2 mph 8.1 mph 87% 0 in 207.00 W/m2 unknown
09:04 57.2 °F 53.6 °F 29.9 in East 5.6 mph 9.3 mph 87% 0 in 207.00 W/m2 unknown
09:09 57.2 °F 53.6 °F 29.9 in ENE 6.2 mph 9.3 mph 87% 0 in 230.00 W/m2 unknown
09:14 57.2 °F 53.6 °F 29.9 in ENE 6.2 mph 8.7 mph 87% 0 in 223.00 W/m2 unknown
09:19 57.2 °F 53.6 °F 29.9 in ENE 7.5 mph 10.6 mph 87% 0 in 199.00 W/m2 unknown
09:24 57.2 °F 53.6 °F 29.9 in East 6.8 mph 10.6 mph 87% 0 in 169.00 W/m2 unknown
09:29 57.2 °F 53.6 °F 29.9 in ENE 6.8 mph 9.3 mph 87% 0 in 230.00 W/m2 unknown
09:34 59 °F 53.6 °F 29.9 in East 6.8 mph 10.6 mph 87% 0 in 371.00 W/m2 unknown
09:39 59 °F 55.4 °F 29.9 in ENE 6.2 mph 9.9 mph 86% 0 in 427.00 W/m2 unknown
09:44 59 °F 55.4 °F 29.9 in East 5.6 mph 8.1 mph 86% 0 in 343.00 W/m2 unknown
09:49 59 °F 55.4 °F 29.9 in ENE 5.6 mph 8.1 mph 86% 0 in 271.00 W/m2 unknown
09:54 59 °F 55.4 °F 29.9 in ENE 8.1 mph 10.6 mph 86% 0 in 311.00 W/m2 unknown
09:59 59 °F 55.4 °F 29.9 in ENE 8.1 mph 10.6 mph 86% 0 in 295.00 W/m2 unknown
10:04 59 °F 55.4 °F 29.9 in ENE 5.6 mph 9.9 mph 86% 0 in 276.00 W/m2 unknown
10:09 59 °F 55.4 °F 29.9 in East 5.6 mph 9.3 mph 86% 0 in 200.00 W/m2 unknown
10:14 59 °F 55.4 °F 29.9 in East 6.8 mph 9.3 mph 86% 0 in 257.00 W/m2 unknown
10:19 59 °F 55.4 °F 29.9 in ENE 8.1 mph 9.3 mph 86% 0 in 257.00 W/m2 unknown
10:24 59 °F 55.4 °F 29.9 in ENE 7.5 mph 9.3 mph 86% 0 in 253.00 W/m2 unknown
10:29 59 °F 55.4 °F 29.9 in ENE 8.7 mph 11.8 mph 85% 0 in 264.00 W/m2 unknown
10:34 59 °F 55.4 °F 29.9 in ENE 8.7 mph 11.8 mph 85% 0 in 281.00 W/m2 unknown
10:39 59 °F 55.4 °F 29.9 in East 8.1 mph 10.6 mph 85% 0 in 281.00 W/m2 unknown
10:44 59 °F 55.4 °F 29.9 in East 8.7 mph 11.8 mph 84% 0 in 320.00 W/m2 unknown
10:49 60.8 °F 55.4 °F 29.9 in ESE 8.1 mph 11.8 mph 84% 0 in 320.00 W/m2 unknown
10:54 60.8 °F 55.4 °F 29.9 in ESE 6.2 mph 9.3 mph 84% 0 in 294.00 W/m2 unknown
10:59 60.8 °F 55.4 °F 30 in East 6.2 mph 9.3 mph 84% 0 in 290.00 W/m2 unknown
11:04 60.8 °F 55.4 °F 30 in East 7.5 mph 10.6 mph 83% 0 in 390.00 W/m2 unknown
11:09 60.8 °F 55.4 °F 29.9 in ESE 6.8 mph 10.6 mph 83% 0 in 406.00 W/m2 unknown
11:14 60.8 °F 55.4 °F 29.9 in ESE 6.8 mph 9.3 mph 83% 0 in 703.00 W/m2 unknown
11:19 60.8 °F 55.4 °F 30 in ESE 6.8 mph 9.3 mph 82% 0 in 473.00 W/m2 unknown
11:24 60.8 °F 55.4 °F 29.9 in ESE 6.2 mph 9.3 mph 82% 0 in 450.00 W/m2 unknown
11:29 60.8 °F 55.4 °F 29.9 in East 6.8 mph 9.3 mph 82% 0 in 441.00 W/m2 unknown
11:34 60.8 °F 55.4 °F 29.9 in East 8.1 mph 11.8 mph 81% 0 in 534.00 W/m2 unknown
11:39 62.6 °F 55.4 °F 29.9 in East 8.7 mph 13 mph 81% 0 in 949.00 W/m2 unknown
11:44 62.6 °F 55.4 °F 29.9 in East 8.1 mph 13 mph 80% 0 in 874.00 W/m2 unknown
11:49 62.6 °F 55.4 °F 29.9 in ESE 10.6 mph 14.9 mph 79% 0 in 1032.00 W/m2 unknown
11:54 62.6 °F 55.4 °F 29.9 in East 8.7 mph 14.9 mph 79% 0 in 664.00 W/m2 unknown
11:59 62.6 °F 55.4 °F 29.9 in ENE 7.5 mph 10.6 mph 78% 0 in 519.00 W/m2 unknown
12:04 62.6 °F 55.4 °F 29.9 in East 5 mph 9.9 mph 78% 0 in 506.00 W/m2 unknown
12:09 62.6 °F 55.4 °F 29.9 in East 8.1 mph 11.8 mph 79% 0 in 605.00 W/m2 unknown
12:14 62.6 °F 55.4 °F 29.9 in East 8.7 mph 11.8 mph 78% 0 in 585.00 W/m2 unknown
12:19 62.6 °F 55.4 °F 29.9 in ENE 7.5 mph 11.8 mph 78% 0 in 466.00 W/m2 unknown
12:24 62.6 °F 55.4 °F 29.9 in ESE 7.5 mph 10.6 mph 77% 0 in 605.00 W/m2 unknown
12:29 62.6 °F 55.4 °F 29.9 in East 6.8 mph 9.9 mph 77% 0 in 462.00 W/m2 unknown
12:34 62.6 °F 55.4 °F 29.9 in ESE 7.5 mph 10.6 mph 77% 0 in 489.00 W/m2 unknown
12:39 62.6 °F 55.4 °F 29.9 in East 6.2 mph 9.9 mph 77% 0 in 536.00 W/m2 unknown
12:44 64.4 °F 57.2 °F 29.9 in ESE 5 mph 9.9 mph 78% 0 in 399.00 W/m2 unknown
12:49 62.6 °F 55.4 °F 29.9 in East 6.8 mph 11.8 mph 78% 0 in 376.00 W/m2 unknown
12:54 62.6 °F 55.4 °F 29.9 in East 6.8 mph 11.8 mph 78% 0 in 422.00 W/m2 unknown
12:59 62.6 °F 55.4 °F 29.9 in ESE 5.6 mph 8.1 mph 77% 0 in 422.00 W/m2 unknown
13:04 62.6 °F 55.4 °F 29.9 in ESE 8.1 mph 11.8 mph 77% 0 in 480.00 W/m2 unknown
13:09 62.6 °F 55.4 °F 29.9 in ESE 7.5 mph 11.8 mph 77% 0 in 417.00 W/m2 unknown
13:14 62.6 °F 57.2 °F 29.9 in East 6.2 mph 9.9 mph 78% 0 in 485.00 W/m2 unknown
13:19 64.4 °F 57.2 °F 29.9 in East 6.2 mph 8.1 mph 77% 0 in 578.00 W/m2 unknown
13:24 64.4 °F 57.2 °F 29.9 in East 6.2 mph 8.1 mph 77% 0 in 650.00 W/m2 unknown
13:29 64.4 °F 57.2 °F 29.9 in ESE 5 mph 9.3 mph 77% 0 in 958.00 W/m2 unknown
13:34 64.4 °F 57.2 °F 29.9 in ESE 5 mph 6.8 mph 76% 0 in 958.00 W/m2 unknown
13:39 64.4 °F 57.2 °F 29.9 in SSE 3.1 mph 6.8 mph 75% 0 in 1005.00 W/m2 unknown
13:44 64.4 °F 57.2 °F 29.9 in SE 4.3 mph 5 mph 73% 0 in 1027.00 W/m2 unknown
13:49 64.4 °F 55.4 °F 29.9 in SE 6.2 mph 9.3 mph 73% 0 in 422.00 W/m2 unknown
13:54 66.2 °F 59 °F 29.9 in ESE 6.2 mph 9.3 mph 79% 0 in 988.00 W/m2 unknown
13:59 66.2 °F 59 °F 29.9 in ESE 5 mph 8.7 mph 79% 0 in 1028.00 W/m2 unknown
14:04 66.2 °F 57.2 °F 29.9 in NNE 5 mph 8.1 mph 73% 0 in 1086.00 W/m2 unknown
14:09 68 °F 57.2 °F 29.9 in NNW 2.5 mph 3.7 mph 73% 0 in 1086.00 W/m2 unknown
14:14 66.2 °F 55.4 °F 29.9 in SW 5 mph 6.8 mph 70% 0 in 566.00 W/m2 unknown
14:19 66.2 °F 55.4 °F 29.9 in SW 5.6 mph 6.8 mph 69% 0 in 566.00 W/m2 unknown
14:24 66.2 °F 55.4 °F 29.9 in SW 5 mph 6.8 mph 68% 0 in 417.00 W/m2 unknown
14:29 66.2 °F 57.2 °F 29.9 in East 5 mph 6.8 mph 71% 0 in 350.00 W/m2 unknown
14:34 66.2 °F 55.4 °F 29.9 in NE 5 mph 6.8 mph 70% 0 in 343.00 W/m2 unknown
14:39 66.2 °F 55.4 °F 29.9 in SSE 4.3 mph 6.8 mph 68% 0 in 380.00 W/m2 unknown
14:44 66.2 °F 55.4 °F 29.9 in SSE 3.1 mph 6.8 mph 70% 0 in 380.00 W/m2 unknown
14:49 66.2 °F 57.2 °F 29.9 in SSW 3.7 mph 6.2 mph 70% 0 in 355.00 W/m2 unknown
14:54 66.2 °F 57.2 °F 29.9 in SSW 4.3 mph 6.2 mph 70% 0 in 313.00 W/m2 unknown
14:59 66.2 °F 55.4 °F 29.9 in South 7.5 mph 11.8 mph 70% 0 in 554.00 W/m2 unknown
15:04 66.2 °F 57.2 °F 29.9 in SE 6.8 mph 11.8 mph 70% 0 in 554.00 W/m2 unknown
15:09 66.2 °F 57.2 °F 29.9 in South 6.8 mph 9.3 mph 70% 0 in 359.00 W/m2 unknown
15:14 66.2 °F 55.4 °F 29.9 in South 6.8 mph 8.7 mph 69% 0 in 272.00 W/m2 unknown
15:19 66.2 °F 55.4 °F 29.9 in SSW 6.8 mph 11.2 mph 70% 0 in 306.00 W/m2 unknown
15:24 66.2 °F 57.2 °F 29.9 in SW 9.3 mph 13 mph 70% 0 in 376.00 W/m2 unknown
15:29 68 °F 57.2 °F 29.9 in SW 8.7 mph 13 mph 69% 0 in 861.00 W/m2 unknown
15:34 68 °F 55.4 °F 29.9 in SW 5 mph 9.9 mph 69% 0 in 230.00 W/m2 unknown
15:39 66.2 °F 55.4 °F 29.9 in NW 8.7 mph 13 mph 71% 0 in 158.00 W/m2 unknown
15:44 66.2 °F 55.4 °F 29.9 in NNW 11.8 mph 19.3 mph 73% 0 in 102.00 W/m2 unknown
15:49 62.6 °F 53.6 °F 29.9 in NNW 11.2 mph 19.3 mph 76% 0 in 225.00 W/m2 unknown
15:54 62.6 °F 53.6 °F 29.9 in NNW 8.1 mph 16.8 mph 76% 0 in 236.00 W/m2 unknown
15:59 62.6 °F 55.4 °F 29.9 in North 8.7 mph 13 mph 76% 0 in 301.00 W/m2 unknown
16:04 62.6 °F 55.4 °F 29.9 in NNW 9.9 mph 13 mph 76% 0 in 301.00 W/m2 unknown
16:09 62.6 °F 55.4 °F 29.9 in North 9.9 mph 13 mph 77% 0 in 276.00 W/m2 unknown
16:14 64.4 °F 57.2 °F 29.9 in North 8.1 mph 13 mph 77% 0 in 729.00 W/m2 unknown
16:19 64.4 °F 57.2 °F 29.9 in NNE 8.1 mph 11.8 mph 75% 0 in 631.00 W/m2 unknown
16:24 64.4 °F 55.4 °F 29.9 in North 6.8 mph 11.8 mph 74% 0 in 612.00 W/m2 unknown
16:29 64.4 °F 55.4 °F 29.9 in NNE 8.7 mph 13 mph 73% 0 in 592.00 W/m2 unknown
16:34 64.4 °F 55.4 °F 29.9 in NNE 8.1 mph 14.3 mph 74% 0 in 564.00 W/m2 unknown
16:39 64.4 °F 57.2 °F 29.9 in NNE 7.5 mph 14.3 mph 75% 0 in 554.00 W/m2 unknown
16:44 64.4 °F 55.4 °F 29.9 in NNE 6.8 mph 9.9 mph 73% 0 in 543.00 W/m2 unknown
16:49 66.2 °F 57.2 °F 29.9 in North 5.6 mph 8.1 mph 73% 0 in 533.00 W/m2 unknown
16:54 66.2 °F 57.2 °F 29.9 in North 5.6 mph 9.3 mph 72% 0 in 538.00 W/m2 unknown
16:59 66.2 °F 57.2 °F 29.9 in North 6.2 mph 9.3 mph 71% 0 in 538.00 W/m2 unknown
17:04 66.2 °F 55.4 °F 29.9 in North 6.2 mph 8.1 mph 71% 0 in 223.00 W/m2 unknown
17:09 66.2 °F 55.4 °F 29.9 in North 6.2 mph 6.8 mph 71% 0 in 464.00 W/m2 unknown
17:14 66.2 °F 55.4 °F 29.9 in North 4.3 mph 6.8 mph 71% 0 in 186.00 W/m2 unknown
17:19 64.4 °F 55.4 °F 29.9 in North 4.3 mph 6.8 mph 70% 0 in 185.00 W/m2 unknown
17:24 64.4 °F 55.4 °F 29.9 in North 5.6 mph 6.8 mph 70% 0 in 186.00 W/m2 unknown
17:29 64.4 °F 55.4 °F 29.9 in North 6.2 mph 9.3 mph 71% 0 in 221.00 W/m2 unknown
17:34 64.4 °F 55.4 °F 29.9 in NE 5 mph 8.7 mph 71% 0 in 221.00 W/m2 unknown
17:39 64.4 °F 55.4 °F 29.9 in NNE 5 mph 6.8 mph 70% 0 in 218.00 W/m2 unknown
17:44 64.4 °F 55.4 °F 29.9 in North 5 mph 6.8 mph 71% 0 in 246.00 W/m2 unknown
17:49 66.2 °F 55.4 °F 29.9 in North 5.6 mph 6.8 mph 70% 0 in 450.00 W/m2 unknown
17:54 66.2 °F 55.4 °F 29.9 in NNE 5.6 mph 6.8 mph 69% 0 in 411.00 W/m2 unknown
17:59 66.2 °F 55.4 °F 29.9 in NNE 3.7 mph 6.8 mph 70% 0 in 341.00 W/m2 unknown
18:04 66.2 °F 55.4 °F 29.9 in NNE 5 mph 6.8 mph 70% 0 in 294.00 W/m2 unknown
18:09 64.4 °F 55.4 °F 29.9 in NE 5.6 mph 6.8 mph 70% 0 in 302.00 W/m2 unknown
18:14 64.4 °F 55.4 °F 29.9 in NE 5 mph 6.8 mph 71% 0 in 299.00 W/m2 unknown
18:19 64.4 °F 55.4 °F 29.9 in NE 4.3 mph 6.8 mph 72% 0 in 283.00 W/m2 unknown
18:24 64.4 °F 55.4 °F 29.9 in NE 5.6 mph 6.8 mph 72% 0 in 271.00 W/m2 unknown
18:29 64.4 °F 55.4 °F 29.9 in NNE 3.1 mph 6.8 mph 72% 0 in 255.00 W/m2 unknown
18:34 64.4 °F 55.4 °F 29.9 in NNE 3.1 mph 5 mph 72% 0 in 248.00 W/m2 unknown
18:39 64.4 °F 55.4 °F 29.9 in ENE 3.7 mph 5 mph 73% 0 in 236.00 W/m2 unknown
18:44 64.4 °F 55.4 °F 29.9 in East 3.7 mph 5 mph 73% 0 in 214.00 W/m2 unknown
18:49 64.4 °F 55.4 °F 29.9 in East 3.1 mph 5 mph 74% 0 in 192.00 W/m2 unknown
18:54 64.4 °F 55.4 °F 29.9 in ENE 2.5 mph 5 mph 73% 0 in 172.00 W/m2 unknown
18:59 64.4 °F 55.4 °F 29.9 in East 2.5 mph 3.7 mph 72% 0 in 163.00 W/m2 unknown
19:04 64.4 °F 55.4 °F 29.9 in East 2.5 mph 3.7 mph 72% 0 in 149.00 W/m2 unknown
19:09 64.4 °F 55.4 °F 29.9 in East 2.5 mph 3.7 mph 72% 0 in 130.00 W/m2 unknown
19:14 64.4 °F 55.4 °F 29.9 in ESE 2.5 mph 3.7 mph 74% 0 in 111.00 W/m2 unknown
19:19 64.4 °F 55.4 °F 29.9 in ESE 2.5 mph 3.7 mph 75% 0 in 95.00 W/m2 unknown
19:24 64.4 °F 55.4 °F 29.9 in East 2.5 mph 3.7 mph 75% 0 in 79.00 W/m2 unknown
19:29 64.4 °F 55.4 °F 29.9 in East 1.9 mph 3.7 mph 75% 0 in 67.00 W/m2 unknown
19:34 64.4 °F 55.4 °F 29.9 in East 1.9 mph 3.7 mph 75% 0 in 56.00 W/m2 unknown
19:39 62.6 °F 55.4 °F 29.9 in ENE 1.9 mph 3.7 mph 76% 0 in 30.00 W/m2 unknown
19:44 62.6 °F 55.4 °F 29.9 in East 1.2 mph 2.5 mph 76% 0 in 26.00 W/m2 unknown
19:49 62.6 °F 55.4 °F 29.9 in East 1.2 mph 2.5 mph 77% 0 in 21.00 W/m2 unknown
19:54 62.6 °F 55.4 °F 29.9 in East 1.2 mph 2.5 mph 77% 0 in 18.00 W/m2 unknown
19:59 62.6 °F 55.4 °F 29.9 in East 1.2 mph 1.2 mph 78% 0 in 14.00 W/m2 unknown
20:04 62.6 °F 55.4 °F 29.9 in Calm     79% 0 in 11.00 W/m2 unknown
20:09 62.6 °F 55.4 °F 29.9 in East 0.6 mph 1.2 mph 81% 0 in 9.00 W/m2 unknown
20:14 62.6 °F 55.4 °F 29.9 in East 0.6 mph 1.2 mph 81% 0 in 5.00 W/m2 unknown
20:19 60.8 °F 55.4 °F 29.9 in ESE 0.6 mph 2.5 mph 82% 0 in 0.00 W/m2 unknown
20:24 60.8 °F 55.4 °F 29.9 in ESE 1.2 mph 2.5 mph 82% 0 in 0.00 W/m2 unknown
20:28 60.8 °F 55.4 °F 29.9 in ESE 1.2 mph 2.5 mph 83% 0 in 0.00 W/m2 unknown
20:34 60.8 °F 55.4 °F 29.9 in ESE 1.2 mph 2.5 mph 84% 0 in 0.00 W/m2 unknown
20:39 60.8 °F 55.4 °F 29.9 in ESE 1.2 mph 2.5 mph 84% 0 in 0.00 W/m2 unknown
20:44 59 °F 55.4 °F 29.9 in ESE 1.9 mph 2.5 mph 84% 0 in 0.00 W/m2 unknown
20:49 59 °F 53.6 °F 29.9 in ESE 1.2 mph 2.5 mph 85% 0 in 0.00 W/m2 unknown
20:54 59 °F 55.4 °F 29.9 in SE 1.2 mph 2.5 mph 86% 0 in 0.00 W/m2 unknown
20:59 59 °F 55.4 °F 29.9 in SE 1.2 mph 1.9 mph 86% 0 in 0.00 W/m2 unknown
21:04 59 °F 53.6 °F 29.9 in East 1.9 mph 2.5 mph 85% 0 in 0.00 W/m2 unknown
21:08 59 °F 53.6 °F 29.9 in East 2.5 mph 3.7 mph 86% 0 in 0.00 W/m2 unknown
21:14 57.2 °F 53.6 °F 29.9 in ENE 2.5 mph 3.7 mph 86% 0 in 0.00 W/m2 unknown
21:19 57.2 °F 53.6 °F 29.9 in ENE 1.9 mph 3.7 mph 86% 0 in 0.00 W/m2 unknown
21:24 57.2 °F 53.6 °F 29.9 in ENE 1.2 mph 3.1 mph 87% 0 in 0.00 W/m2 unknown
21:29 57.2 °F 53.6 °F 29.9 in ENE 2.5 mph 3.7 mph 87% 0 in 0.00 W/m2 unknown
21:34 57.2 °F 53.6 °F 29.9 in ENE 3.7 mph 3.7 mph 87% 0 in 0.00 W/m2 unknown
21:39 57.2 °F 53.6 °F 29.9 in ENE 3.1 mph 3.7 mph 87% 0 in 0.00 W/m2 unknown
21:44 57.2 °F 53.6 °F 29.9 in East 2.5 mph 3.7 mph 88% 0 in 0.00 W/m2 unknown
21:49 57.2 °F 53.6 °F 29.9 in East 2.5 mph 5 mph 88% 0 in 0.00 W/m2 unknown
21:54 57.2 °F 53.6 °F 29.9 in ESE 3.1 mph 5 mph 88% 0 in 0.00 W/m2 unknown
21:59 57.2 °F 53.6 °F 29.9 in East 3.7 mph 5 mph 88% 0 in 0.00 W/m2 unknown
22:04 57.2 °F 53.6 °F 29.9 in East 3.7 mph 5 mph 87% 0 in 0.00 W/m2 unknown
22:09 57.2 °F 53.6 °F 29.9 in East 3.7 mph 5 mph 87% 0 in 0.00 W/m2 unknown
22:14 57.2 °F 53.6 °F 29.9 in ESE 3.1 mph 5 mph 88% 0 in 0.00 W/m2 unknown
22:19 57.2 °F 53.6 °F 29.9 in ESE 3.1 mph 3.7 mph 88% 0 in 0.00 W/m2 unknown
22:24 57.2 °F 53.6 °F 29.9 in SE 2.5 mph 3.7 mph 89% 0 in 0.00 W/m2 unknown
22:28 57.2 °F 53.6 °F 29.9 in SE 3.1 mph 3.7 mph 89% 0 in 0.00 W/m2 unknown
22:34 57.2 °F 53.6 °F 29.9 in SE 3.1 mph 3.7 mph 90% 0 in 0.00 W/m2 unknown
22:39 57.2 °F 53.6 °F 29.9 in SE 3.1 mph 5 mph 90% 0 in 0.00 W/m2 unknown
22:44 57.2 °F 53.6 °F 29.9 in SE 3.1 mph 5 mph 89% 0 in 0.00 W/m2 unknown
22:49 57.2 °F 53.6 °F 29.9 in SE 3.1 mph 5 mph 88% 0 in 0.00 W/m2 unknown
22:54 57.2 °F 53.6 °F 29.9 in ESE 3.1 mph 5 mph 87% 0 in 0.00 W/m2 unknown
22:59 57.2 °F 53.6 °F 30 in ENE 4.3 mph 6.2 mph 87% 0 in 0.00 W/m2 unknown
23:04 57.2 °F 53.6 °F 30 in ENE 4.3 mph 6.2 mph 87% 0 in 0.00 W/m2 unknown
23:09 57.2 °F 53.6 °F 30 in ENE 3.1 mph 6.2 mph 88% 0 in 0.00 W/m2 unknown
23:14 57.2 °F 53.6 °F 30 in ENE 3.1 mph 5 mph 88% 0 in 0.00 W/m2 unknown
23:19 57.2 °F 53.6 °F 30 in ENE 3.7 mph 6.2 mph 88% 0 in 0.00 W/m2 unknown
23:24 57.2 °F 53.6 °F 30 in NE 4.3 mph 6.2 mph 88% 0 in 0.00 W/m2 unknown
23:29 57.2 °F 53.6 °F 30 in NE 5 mph 6.2 mph 89% 0 in 0.00 W/m2 unknown
23:34 57.2 °F 53.6 °F 30 in NE 3.7 mph 5 mph 89% 0 in 0.00 W/m2 unknown
23:39 57.2 °F 53.6 °F 30 in ENE 3.7 mph 5 mph 89% 0 in 0.00 W/m2 unknown
23:44 55.4 °F 53.6 °F 30 in ENE 3.7 mph 5 mph 89% 0 in 0.00 W/m2 unknown
23:49 55.4 °F 53.6 °F 30 in ENE 3.7 mph 5 mph 90% 0 in 0.00 W/m2 unknown
23:54 55.4 °F 53.6 °F 30 in ENE 3.7 mph 6.2 mph 90% 0 in 0.00 W/m2 unknown
23:59 55.4 °F 53.6 °F 30 in NE 4.3 mph 6.8 mph 90% 0 in 0.00 W/m2 unknown
Stazione Meteorologica MeteoMincio Rivalta s/M (MN)
Con i complimenti di Weather Underground - 4 mb



METEO PILLOLE
La variazione termica più rapida
Spearfish, South Dakota - USA
Il 22 gennaio 1943 in soli 2 minuti la temperatura passò da -20°C a +7°C.
Share

Non seguire questo link o sarai bannato dal sito!